Time;durP1;ratioP1;P1;durP2;ratioP2;P2;SDS_P1;SDS_P2;PMS_P1;PMS_P2;Temp;Humidity;BMP_temperature;BMP_pressure;BME280_temperature;BME280_humidity;BME280_pressure;Samples;Min_cycle;Max_cycle;Signal;HPM_P1;HPM_P2
2024/04/15 00:00:44;;;;;;;1.80;0.80;;;18.80;57.90;;;;;;5418219;26;20221;-70
2024/04/15 00:03:09;;;;;;;1.60;1.02;;;18.80;58.00;;;;;;5417758;26;20710;-69
2024/04/15 00:05:37;;;;;;;1.10;0.85;;;18.70;58.00;;;;;;5418237;26;20225;-69
2024/04/15 00:08:02;;;;;;;2.17;0.98;;;18.80;58.00;;;;;;5418046;26;20225;-69
2024/04/15 00:10:28;;;;;;;3.13;1.58;;;18.70;58.00;;;;;;5417589;26;20225;-69
2024/04/15 00:12:56;;;;;;;1.67;0.90;;;18.70;58.00;;;;;;5418024;26;20224;-70
2024/04/15 00:15:22;;;;;;;0.60;0.60;;;18.80;58.00;;;;;;5418325;26;20220;-70
2024/04/15 00:17:49;;;;;;;1.45;1.00;;;18.70;58.00;;;;;;5416917;26;20309;-71
2024/04/15 00:20:14;;;;;;;1.65;0.98;;;18.70;58.00;;;;;;5418184;26;20607;-70
2024/04/15 00:22:40;;;;;;;1.63;1.15;;;18.70;58.00;;;;;;5418025;26;20221;-69
2024/04/15 00:25:05;;;;;;;2.38;1.00;;;18.70;58.10;;;;;;5417319;26;20220;-69
2024/04/15 00:27:31;;;;;;;2.83;1.17;;;18.70;58.00;;;;;;5417750;26;20220;-68
2024/04/15 00:29:56;;;;;;;2.28;1.08;;;18.70;58.00;;;;;;5417015;26;20217;-69
2024/04/15 00:32:22;;;;;;;0.95;0.80;;;18.70;58.00;;;;;;5417970;26;20228;-69
2024/04/15 00:34:50;;;;;;;1.25;1.10;;;18.60;58.00;;;;;;5417703;26;20255;-69
2024/04/15 00:37:16;;;;;;;1.25;0.82;;;18.70;58.10;;;;;;5417136;26;20229;-70
2024/04/15 00:39:41;;;;;;;3.10;1.23;;;18.70;58.10;;;;;;5417635;26;20546;-70
2024/04/15 00:42:07;;;;;;;2.47;1.05;;;18.70;58.10;;;;;;5418000;26;20216;-70
2024/04/15 00:44:33;;;;;;;1.95;1.05;;;18.60;58.00;;;;;;5417133;26;20228;-70
2024/04/15 00:46:59;;;;;;;0.82;0.70;;;18.60;58.10;;;;;;5417589;26;20276;-70
2024/04/15 00:49:24;;;;;;;0.77;0.68;;;18.60;58.10;;;;;;5357509;26;20750;-70
2024/04/15 00:51:50;;;;;;;1.80;1.10;;;18.60;58.10;;;;;;5416662;26;20363;-70
2024/04/15 00:54:25;;;;;;;2.28;1.05;;;18.60;58.10;;;;;;5417797;26;20285;-70
2024/04/15 00:56:50;;;;;;;1.27;1.00;;;18.60;58.10;;;;;;5386214;26;20258;-70
2024/04/15 00:59:16;;;;;;;1.40;0.80;;;18.60;58.10;;;;;;5416894;26;20216;-69
2024/04/15 01:01:42;;;;;;;1.20;0.75;;;18.60;58.10;;;;;;5385965;26;20220;-69
2024/04/15 01:04:08;;;;;;;0.90;0.70;;;18.60;58.10;;;;;;5386798;26;20221;-68
2024/04/15 01:06:33;;;;;;;0.88;0.80;;;18.60;58.10;;;;;;5416801;26;20259;-68
2024/04/15 01:08:59;;;;;;;1.05;0.68;;;18.60;58.10;;;;;;5356757;26;20259;-68
2024/04/15 01:11:27;;;;;;;0.82;0.70;;;18.60;58.10;;;;;;5417555;26;20259;-69
2024/04/15 01:13:53;;;;;;;1.27;0.77;;;18.60;58.10;;;;;;5385046;26;20224;-69
2024/04/15 01:16:18;;;;;;;1.88;1.00;;;18.60;58.10;;;;;;5403128;26;20364;-70
2024/04/15 01:18:44;;;;;;;0.98;0.80;;;18.60;58.10;;;;;;5452928;26;20262;-70
2024/04/15 01:21:09;;;;;;;1.42;0.90;;;18.50;58.10;;;;;;5452475;26;20353;-69
2024/04/15 01:23:37;;;;;;;2.20;1.02;;;18.50;58.10;;;;;;5421809;26;20790;-68
2024/04/15 01:26:03;;;;;;;1.67;0.80;;;18.60;58.10;;;;;;5453050;26;20275;-68
2024/04/15 01:28:28;;;;;;;1.60;1.00;;;18.50;58.10;;;;;;5452326;26;20315;-67
2024/04/15 01:30:54;;;;;;;1.48;0.80;;;18.50;58.10;;;;;;5452842;26;20258;-68
2024/04/15 01:33:19;;;;;;;1.95;1.05;;;18.50;58.10;;;;;;5452304;26;20320;-69
2024/04/15 01:35:45;;;;;;;1.30;0.80;;;18.50;58.10;;;;;;5452641;26;20621;-69
2024/04/15 01:38:10;;;;;;;2.13;0.80;;;18.50;58.10;;;;;;5451823;26;20702;-70
2024/04/15 01:40:36;;;;;;;1.50;0.70;;;18.50;58.10;;;;;;5452127;26;20211;-70
2024/04/15 01:43:02;;;;;;;1.23;0.80;;;18.50;58.10;;;;;;5451918;26;20320;-70
2024/04/15 01:45:27;;;;;;;0.77;0.60;;;18.50;58.10;;;;;;5453051;26;20315;-70
2024/04/15 01:47:53;;;;;;;1.63;0.80;;;18.50;58.10;;;;;;5451729;26;20219;-69
2024/04/15 01:50:20;;;;;;;1.85;1.00;;;18.50;58.10;;;;;;5451030;26;20220;-70
2024/04/15 01:52:45;;;;;;;0.93;0.80;;;18.50;58.10;;;;;;5452583;26;20256;-69
2024/04/15 01:55:11;;;;;;;1.52;0.88;;;18.40;58.10;;;;;;5451706;26;20212;-70
2024/04/15 01:57:36;;;;;;;1.23;0.77;;;18.50;58.10;;;;;;5452752;26;20341;-68
2024/04/15 02:00:06;;;;;;;1.13;0.63;;;18.50;58.10;;;;;;5452275;26;20258;-69
2024/04/15 02:02:31;;;;;;;1.13;0.77;;;18.40;58.10;;;;;;5452057;26;20220;-69
2024/04/15 02:04:57;;;;;;;1.08;0.90;;;18.50;58.10;;;;;;5451813;26;20632;-68
2024/04/15 02:07:22;;;;;;;2.50;0.88;;;18.40;58.10;;;;;;5452685;26;20258;-68
2024/04/15 02:09:48;;;;;;;1.98;1.20;;;18.40;58.10;;;;;;5451536;26;20602;-68
2024/04/15 02:12:13;;;;;;;2.08;0.90;;;18.40;58.10;;;;;;5452674;26;20215;-68
2024/04/15 02:14:39;;;;;;;2.10;0.90;;;18.40;58.10;;;;;;5452602;26;20623;-70
2024/04/15 02:17:04;;;;;;;1.40;0.90;;;18.40;58.10;;;;;;5428561;26;20341;-70
2024/04/15 02:19:32;;;;;;;1.52;0.77;;;18.40;58.10;;;;;;5416537;26;20254;-70
2024/04/15 02:21:58;;;;;;;1.50;1.10;;;18.40;58.20;;;;;;5416159;26;20292;-69
2024/04/15 02:24:27;;;;;;;0.65;0.55;;;18.40;58.10;;;;;;5415701;26;20232;-69
2024/04/15 02:26:53;;;;;;;1.45;0.77;;;18.40;58.20;;;;;;5416131;26;20220;-68
2024/04/15 02:29:19;;;;;;;3.17;1.10;;;18.40;58.20;;;;;;5416555;26;20320;-69
2024/04/15 02:31:44;;;;;;;2.25;0.77;;;18.40;58.20;;;;;;5415159;26;20268;-69
2024/04/15 02:34:10;;;;;;;2.83;1.10;;;18.40;58.20;;;;;;5416361;26;20263;-70
2024/04/15 02:36:35;;;;;;;1.80;0.98;;;18.40;58.20;;;;;;5415533;26;20263;-69
2024/04/15 02:39:01;;;;;;;1.13;0.70;;;18.40;58.20;;;;;;5415865;26;20280;-71
2024/04/15 02:41:27;;;;;;;1.50;0.73;;;18.40;58.20;;;;;;5416305;26;20738;-70
2024/04/15 02:43:52;;;;;;;1.55;0.80;;;18.40;58.20;;;;;;5414892;26;20216;-70
2024/04/15 02:46:18;;;;;;;2.28;1.23;;;18.40;58.20;;;;;;5416101;26;20666;-70
2024/04/15 02:48:43;;;;;;;1.23;0.93;;;18.40;58.20;;;;;;5415793;26;21143;-69
2024/04/15 02:51:09;;;;;;;1.45;0.93;;;18.40;58.20;;;;;;5415003;26;20296;-71
2024/04/15 02:53:34;;;;;;;0.95;0.77;;;18.40;58.20;;;;;;5416181;26;20224;-70
2024/04/15 02:56:00;;;;;;;1.25;0.90;;;18.40;58.20;;;;;;5415668;26;20286;-70
2024/04/15 02:58:25;;;;;;;1.67;0.93;;;18.40;58.20;;;;;;5415103;26;20338;-70
2024/04/15 03:00:51;;;;;;;2.13;0.90;;;18.30;58.20;;;;;;5415502;26;20224;-70
2024/04/15 03:03:17;;;;;;;1.48;0.90;;;18.40;58.20;;;;;;5415845;26;20298;-70
2024/04/15 03:05:45;;;;;;;1.23;0.95;;;18.30;58.20;;;;;;5414684;26;20220;-69
2024/04/15 03:08:11;;;;;;;1.15;1.02;;;18.30;58.20;;;;;;5415860;26;20224;-70
2024/04/15 03:10:37;;;;;;;1.58;1.05;;;18.30;58.20;;;;;;5415887;26;20220;-70
2024/04/15 03:13:02;;;;;;;1.25;1.00;;;18.30;58.20;;;;;;5414435;26;20321;-70
2024/04/15 03:15:29;;;;;;;0.95;0.90;;;18.30;58.20;;;;;;5415594;26;20220;-71
2024/04/15 03:17:55;;;;;;;1.33;0.93;;;18.30;58.20;;;;;;5415293;26;20229;-72
2024/04/15 03:20:22;;;;;;;1.23;0.90;;;18.30;58.20;;;;;;5414818;26;20216;-71
2024/04/15 03:22:49;;;;;;;2.15;0.80;;;18.30;58.20;;;;;;5415221;26;20259;-70
2024/04/15 03:25:15;;;;;;;1.30;0.68;;;18.30;58.20;;;;;;5414806;26;20259;-69
2024/04/15 03:27:41;;;;;;;2.17;1.00;;;18.30;58.20;;;;;;5414322;26;20220;-69
2024/04/15 03:30:07;;;;;;;1.38;0.85;;;18.30;58.20;;;;;;5415338;26;20587;-69
2024/04/15 03:32:32;;;;;;;1.20;1.00;;;18.30;58.20;;;;;;5415430;26;20733;-71
2024/04/15 03:34:58;;;;;;;1.17;0.90;;;18.20;58.10;;;;;;5414059;26;20675;-71
2024/04/15 03:37:23;;;;;;;2.95;1.10;;;18.30;58.20;;;;;;5415212;26;20738;-71
2024/04/15 03:39:49;;;;;;;1.83;1.00;;;18.30;58.20;;;;;;5414677;26;20243;-71
2024/04/15 03:42:14;;;;;;;1.90;1.20;;;18.30;58.20;;;;;;5414674;26;20550;-71
2024/04/15 03:44:40;;;;;;;1.70;1.00;;;18.30;58.20;;;;;;5414760;26;20373;-71
2024/04/15 03:47:06;;;;;;;1.25;0.90;;;18.30;58.20;;;;;;5414349;26;20228;-71
2024/04/15 03:49:31;;;;;;;1.70;0.80;;;18.30;58.20;;;;;;5415121;26;20772;-70
2024/04/15 03:51:57;;;;;;;1.30;0.95;;;18.30;58.20;;;;;;5414676;26;20263;-71
2024/04/15 03:54:22;;;;;;;1.65;1.10;;;18.20;58.10;;;;;;5414062;26;20679;-70
2024/04/15 03:56:48;;;;;;;1.40;1.00;;;18.20;58.10;;;;;;5414509;26;20228;-70
2024/04/15 03:59:13;;;;;;;2.17;1.15;;;18.20;58.10;;;;;;5414843;26;20259;-70
2024/04/15 04:01:39;;;;;;;1.30;0.90;;;18.20;58.10;;;;;;5415084;26;20252;-69
2024/04/15 04:04:05;;;;;;;0.82;0.77;;;18.30;58.20;;;;;;5418443;26;20213;-69
2024/04/15 04:06:30;;;;;;;1.42;1.10;;;18.20;58.10;;;;;;5418523;26;20296;-68
2024/04/15 04:08:56;;;;;;;2.83;1.13;;;18.20;58.10;;;;;;5417217;26;20217;-69
2024/04/15 04:11:22;;;;;;;2.65;1.20;;;18.20;58.10;;;;;;5418516;26;20216;-69
2024/04/15 04:13:47;;;;;;;1.75;1.10;;;18.30;58.20;;;;;;5417734;26;20255;-69
2024/04/15 04:16:13;;;;;;;1.42;1.00;;;18.20;58.10;;;;;;5417460;26;20225;-71
2024/04/15 04:18:38;;;;;;;2.00;1.40;;;18.20;58.10;;;;;;5418407;26;20216;-70
2024/04/15 04:21:13;;;;;;;1.40;1.00;;;18.20;58.10;;;;;;5418000;26;20221;-70
2024/04/15 04:23:38;;;;;;;1.33;1.23;;;18.20;58.10;;;;;;5417479;26;20224;-68
2024/04/15 04:26:04;;;;;;;2.70;1.23;;;18.20;58.10;;;;;;5417859;26;20311;-70
2024/04/15 04:28:29;;;;;;;0.98;0.88;;;18.20;58.20;;;;;;5418060;26;20216;-69
2024/04/15 04:31:03;;;;;;;2.85;1.10;;;18.20;58.20;;;;;;5416889;26;20283;-68
2024/04/15 04:33:29;;;;;;;2.33;1.00;;;18.20;58.20;;;;;;5418236;26;20221;-69
2024/04/15 04:35:55;;;;;;;1.45;1.08;;;18.10;58.20;;;;;;5417743;26;20224;-70
2024/04/15 04:38:20;;;;;;;2.25;1.50;;;18.20;58.20;;;;;;5417050;26;20217;-71
2024/04/15 04:40:46;;;;;;;2.67;1.30;;;18.20;58.30;;;;;;5417525;26;20220;-71
2024/04/15 04:43:12;;;;;;;1.83;0.90;;;18.10;58.20;;;;;;5417118;26;20220;-71
2024/04/15 04:45:37;;;;;;;2.95;1.02;;;18.20;58.20;;;;;;5417895;26;20260;-70
2024/04/15 04:48:03;;;;;;;1.33;1.10;;;18.10;58.10;;;;;;5417483;26;20581;-70
2024/04/15 04:50:31;;;;;;;2.13;1.17;;;18.20;58.20;;;;;;5416954;26;20251;-70
2024/04/15 04:52:57;;;;;;;2.10;1.23;;;18.10;58.20;;;;;;5417544;26;20212;-70
2024/04/15 04:55:23;;;;;;;1.08;0.80;;;18.20;58.20;;;;;;5417758;26;20325;-70
2024/04/15 04:57:48;;;;;;;2.70;1.48;;;18.10;58.10;;;;;;5416401;26;20232;-69
2024/04/15 05:00:14;;;;;;;1.80;1.20;;;18.10;58.20;;;;;;5417711;26;20233;-70
2024/04/15 05:02:40;;;;;;;1.20;0.93;;;18.10;58.20;;;;;;5417566;26;20565;-68
2024/04/15 05:05:06;;;;;;;0.98;0.93;;;18.10;58.20;;;;;;5416810;26;20224;-69
2024/04/15 05:07:31;;;;;;;2.25;1.20;;;18.10;58.20;;;;;;5417593;26;20618;-68
2024/04/15 05:09:57;;;;;;;1.48;1.02;;;18.10;58.10;;;;;;5417099;26;20232;-69
2024/04/15 05:12:22;;;;;;;3.03;1.40;;;18.10;58.10;;;;;;5415955;26;20289;-69
2024/04/15 05:14:48;;;;;;;2.10;1.30;;;18.10;58.10;;;;;;5416265;26;20325;-70
2024/04/15 05:17:14;;;;;;;3.40;1.10;;;18.10;58.10;;;;;;5417433;26;20345;-70
2024/04/15 05:19:39;;;;;;;1.92;1.10;;;18.10;58.10;;;;;;5416319;26;20233;-70
2024/04/15 05:22:05;;;;;;;2.80;1.40;;;18.10;58.10;;;;;;5417292;26;20703;-69
2024/04/15 05:24:30;;;;;;;2.03;1.02;;;18.10;58.10;;;;;;5417183;26;20232;-69
2024/04/15 05:26:59;;;;;;;0.85;0.82;;;18.10;58.20;;;;;;5416055;26;20225;-68
2024/04/15 05:29:24;;;;;;;1.13;1.02;;;18.10;58.10;;;;;;5417433;26;20220;-68
2024/04/15 05:31:50;;;;;;;1.42;1.23;;;18.10;58.10;;;;;;5416939;26;20289;-69
2024/04/15 05:34:15;;;;;;;1.25;0.98;;;18.10;58.10;;;;;;5416400;26;20670;-70
2024/04/15 05:36:41;;;;;;;1.77;1.20;;;18.10;58.10;;;;;;5416788;26;20216;-71
2024/04/15 05:39:06;;;;;;;2.28;1.10;;;18.10;58.10;;;;;;5416884;26;20229;-71
2024/04/15 05:41:32;;;;;;;1.77;1.23;;;18.10;58.20;;;;;;5416284;26;20224;-71
2024/04/15 05:43:57;;;;;;;3.08;1.40;;;18.10;58.20;;;;;;5416663;26;20217;-71
2024/04/15 05:46:23;;;;;;;1.67;1.17;;;18.10;58.10;;;;;;5417009;26;20221;-71
2024/04/15 05:48:48;;;;;;;1.27;1.10;;;18.10;58.10;;;;;;5415850;26;20561;-70
2024/04/15 05:51:16;;;;;;;1.45;1.25;;;18.10;58.10;;;;;;5417007;26;20671;-70
2024/04/15 05:53:42;;;;;;;1.70;1.05;;;18.10;58.10;;;;;;5415781;26;20551;-71
2024/04/15 05:56:08;;;;;;;1.48;1.10;;;18.10;58.10;;;;;;5416863;26;20687;-70
2024/04/15 05:58:34;;;;;;;1.65;1.20;;;18.10;58.10;;;;;;5416619;26;20262;-69
2024/04/15 06:00:59;;;;;;;2.85;1.20;;;18.10;58.10;;;;;;5415682;26;20602;-69
2024/04/15 06:03:25;;;;;;;2.22;1.20;;;18.20;58.10;;;;;;5416862;26;20275;-69
2024/04/15 06:05:50;;;;;;;1.90;1.10;;;18.10;58.10;;;;;;5416462;26;20263;-68
2024/04/15 06:08:16;;;;;;;1.65;1.00;;;18.10;58.10;;;;;;5415988;26;20260;-69
2024/04/15 06:10:42;;;;;;;1.70;1.30;;;18.10;58.10;;;;;;5416293;26;20217;-70
2024/04/15 06:13:07;;;;;;;1.95;1.10;;;18.10;58.10;;;;;;5416742;26;20220;-69
2024/04/15 06:15:36;;;;;;;1.45;1.02;;;18.10;58.10;;;;;;5415853;26;20322;-68
2024/04/15 06:18:04;;;;;;;2.00;1.17;;;18.10;58.10;;;;;;5416319;26;20550;-70
2024/04/15 06:20:30;;;;;;;1.55;1.08;;;18.20;58.10;;;;;;5416484;26;20459;-71
2024/04/15 06:22:55;;;;;;;2.13;1.25;;;18.10;58.10;;;;;;5415228;26;20702;-69
2024/04/15 06:25:21;;;;;;;1.58;1.00;;;18.10;58.10;;;;;;5415440;26;20237;-68
2024/04/15 06:27:49;;;;;;;1.27;1.17;;;18.10;58.10;;;;;;5416063;26;20221;-69
2024/04/15 06:30:15;;;;;;;2.53;0.95;;;18.20;58.10;;;;;;5415621;26;20225;-68
2024/04/15 06:32:40;;;;;;;3.35;1.33;;;18.10;58.10;;;;;;5416120;26;20253;-71
2024/04/15 06:35:06;;;;;;;2.75;1.45;;;18.10;58.10;;;;;;5416171;26;20570;-70
2024/04/15 06:37:31;;;;;;;1.92;1.02;;;18.20;58.10;;;;;;5417130;26;20224;-71
2024/04/15 06:39:57;;;;;;;3.13;1.45;;;18.20;58.00;;;;;;5415744;26;20220;-70
2024/04/15 06:42:23;;;;;;;3.15;1.00;;;18.20;57.90;;;;;;5416167;26;20737;-68
2024/04/15 06:44:48;;;;;;;1.67;1.10;;;18.30;57.90;;;;;;5414953;26;20261;-70
2024/04/15 06:47:14;;;;;;;3.75;1.10;;;18.30;58.00;;;;;;5416185;26;20553;-71
2024/04/15 06:49:39;;;;;;;2.13;1.63;;;18.30;58.00;;;;;;5415832;26;20221;-72
2024/04/15 06:52:06;;;;;;;4.43;1.20;;;18.30;57.90;;;;;;5415127;26;20683;-69
2024/04/15 06:54:31;;;;;;;5.43;1.60;;;18.30;57.90;;;;;;5415039;26;20240;-68
2024/04/15 06:56:57;;;;;;;2.92;1.40;;;18.30;57.90;;;;;;5412179;26;20220;-68
2024/04/15 06:59:22;;;;;;;2.72;1.27;;;18.30;57.90;;;;;;5414931;26;20267;-69
2024/04/15 07:01:48;;;;;;;4.35;1.50;;;18.30;57.90;;;;;;5415248;26;20635;-69
2024/04/15 07:04:14;;;;;;;3.70;1.55;;;18.30;58.00;;;;;;5414782;26;20250;-68
2024/04/15 07:06:39;;;;;;;2.85;1.23;;;18.30;58.00;;;;;;5415471;26;20224;-68
2024/04/15 07:09:05;;;;;;;4.82;1.50;;;18.30;58.00;;;;;;5415591;26;20273;-68
2024/04/15 07:11:32;;;;;;;3.88;1.05;;;18.30;58.00;;;;;;5413900;26;20224;-68
2024/04/15 07:13:57;;;;;;;2.85;1.60;;;18.30;58.00;;;;;;5415269;26;20385;-68
2024/04/15 07:16:23;;;;;;;2.85;1.48;;;18.40;57.90;;;;;;5428045;26;20275;-69
2024/04/15 07:18:48;;;;;;;4.22;1.38;;;18.40;57.80;;;;;;5450055;26;20250;-69
2024/04/15 07:21:14;;;;;;;2.30;1.20;;;18.40;57.70;;;;;;5451403;26;20563;-69
2024/04/15 07:23:40;;;;;;;3.35;1.52;;;18.40;57.70;;;;;;5451220;26;20211;-67
2024/04/15 07:26:05;;;;;;;4.40;1.40;;;18.30;57.70;;;;;;5450644;26;20208;-68
2024/04/15 07:28:31;;;;;;;2.50;1.20;;;18.40;57.80;;;;;;5451209;26;20258;-67
2024/04/15 07:31:00;;;;;;;4.93;1.67;;;18.40;57.90;;;;;;5451116;26;20215;-67
2024/04/15 07:33:26;;;;;;;1.92;1.17;;;18.40;57.90;;;;;;5450496;26;20287;-68
2024/04/15 07:35:55;;;;;;;5.88;1.60;;;18.40;57.90;;;;;;5450997;26;20219;-69
2024/04/15 07:38:21;;;;;;;2.95;1.35;;;18.40;57.90;;;;;;5454637;26;20223;-70
2024/04/15 07:40:46;;;;;;;2.42;1.13;;;18.40;57.80;;;;;;5453547;26;20258;-71
2024/04/15 07:43:13;;;;;;;2.85;1.23;;;18.40;57.80;;;;;;5454781;26;20677;-69
2024/04/15 07:45:38;;;;;;;5.20;1.40;;;18.40;57.80;;;;;;5454684;26;20258;-70
2024/04/15 07:48:04;;;;;;;2.33;1.20;;;18.40;57.80;;;;;;5453451;26;20220;-69
2024/04/15 07:50:30;;;;;;;1.70;1.20;;;18.40;57.80;;;;;;5454642;26;20553;-70
2024/04/15 07:52:55;;;;;;;4.15;1.40;;;18.40;57.80;;;;;;5454327;26;20266;-69
2024/04/15 07:55:21;;;;;;;3.60;1.20;;;18.30;57.80;;;;;;5453868;26;20215;-69
2024/04/15 07:57:46;;;;;;;2.47;1.17;;;18.40;57.80;;;;;;5453931;26;20223;-69
2024/04/15 08:00:12;;;;;;;2.88;1.27;;;18.40;57.70;;;;;;5453602;26;20219;-68
2024/04/15 08:02:38;;;;;;;4.55;1.60;;;18.40;57.70;;;;;;5454444;26;20271;-69
2024/04/15 08:05:03;;;;;;;2.95;1.35;;;18.40;57.70;;;;;;5453855;26;20270;-68
2024/04/15 08:07:29;;;;;;;3.08;1.20;;;18.40;57.60;;;;;;5453426;26;20254;-67
2024/04/15 08:09:58;;;;;;;4.35;1.50;;;18.40;57.60;;;;;;5453879;26;20331;-68
2024/04/15 08:12:23;;;;;;;3.97;1.45;;;18.40;57.60;;;;;;5454194;26;20220;-68
2024/04/15 08:14:49;;;;;;;5.00;1.80;;;18.40;57.50;;;;;;5452938;26;20254;-69
2024/04/15 08:17:14;;;;;;;1.85;1.20;;;18.40;57.50;;;;;;5453916;26;20347;-69
2024/04/15 08:19:40;;;;;;;2.47;1.20;;;18.40;57.50;;;;;;5453544;26;20220;-69
2024/04/15 08:22:05;;;;;;;2.42;1.25;;;18.50;57.50;;;;;;5453264;26;20227;-68
2024/04/15 08:24:31;;;;;;;1.58;1.00;;;18.50;57.40;;;;;;5454017;26;20644;-68
2024/04/15 08:26:56;;;;;;;2.60;1.27;;;18.50;57.30;;;;;;5453482;26;20709;-68
2024/04/15 08:29:22;;;;;;;4.65;1.63;;;18.50;57.30;;;;;;5453148;26;20227;-68
2024/04/15 08:31:48;;;;;;;3.03;1.20;;;18.50;57.30;;;;;;5453602;26;20279;-68
2024/04/15 08:34:14;;;;;;;1.83;1.30;;;18.50;57.30;;;;;;5453977;26;20249;-69
2024/04/15 08:36:39;;;;;;;7.30;1.70;;;18.50;57.30;;;;;;5452940;26;20247;-69
2024/04/15 08:39:05;;;;;;;2.30;1.23;;;18.50;57.30;;;;;;5453559;26;20746;-70
2024/04/15 08:41:31;;;;;;;2.50;1.10;;;18.50;57.30;;;;;;5453794;26;20227;-69
2024/04/15 08:44:03;;;;;;;2.15;1.08;;;18.50;57.30;;;;;;5450825;26;20220;-69
2024/04/15 08:46:32;;;;;;;3.30;1.63;;;18.50;57.30;;;;;;5453630;26;20315;-69
2024/04/15 08:48:59;;;;;;;1.92;1.20;;;18.50;57.40;;;;;;5422021;26;20220;-69
2024/04/15 08:51:24;;;;;;;2.45;1.58;;;18.50;57.40;;;;;;5452880;26;20344;-70
2024/04/15 08:53:50;;;;;;;3.75;1.60;;;18.50;57.30;;;;;;5451582;26;20590;-69
2024/04/15 08:56:16;;;;;;;2.42;1.42;;;18.50;57.30;;;;;;5453640;26;20231;-69
2024/04/15 08:58:42;;;;;;;1.25;1.02;;;18.50;57.30;;;;;;5450646;26;20216;-69
2024/04/15 09:01:08;;;;;;;3.50;1.35;;;18.50;57.30;;;;;;5451806;26;20579;-68
2024/04/15 09:03:34;;;;;;;1.95;1.10;;;18.50;57.20;;;;;;5450909;26;20679;-68
2024/04/15 09:05:59;;;;;;;2.15;1.33;;;18.60;57.20;;;;;;5451396;26;20223;-68
2024/04/15 09:08:25;;;;;;;4.28;1.55;;;18.60;57.20;;;;;;5451665;26;20223;-68
2024/04/15 09:10:50;;;;;;;1.67;1.30;;;18.60;57.20;;;;;;5452115;26;20231;-68
2024/04/15 09:13:16;;;;;;;2.58;1.30;;;18.60;57.10;;;;;;5451712;26;20254;-68
2024/04/15 09:15:41;;;;;;;2.20;1.10;;;18.60;57.30;;;;;;5452598;26;20254;-69
2024/04/15 09:18:08;;;;;;;4.05;1.58;;;18.60;57.10;;;;;;5452283;26;20215;-69
2024/04/15 09:20:33;;;;;;;2.00;1.45;;;18.60;57.10;;;;;;5421800;26;20219;-69
2024/04/15 09:23:07;;;;;;;2.05;1.35;;;18.60;57.00;;;;;;5452833;26;20771;-67
2024/04/15 09:25:33;;;;;;;2.97;1.65;;;18.60;56.90;;;;;;5450905;26;20563;-67
2024/04/15 09:28:01;;;;;;;2.33;1.20;;;18.60;56.90;;;;;;5452829;26;20219;-68
2024/04/15 09:30:29;;;;;;;3.05;1.10;;;18.70;56.90;;;;;;5453357;26;20275;-68
2024/04/15 09:32:55;;;;;;;1.92;1.20;;;18.80;56.70;;;;;;5452212;26;20258;-69
2024/04/15 09:35:21;;;;;;;1.55;1.10;;;18.90;56.40;;;;;;5453180;26;20707;-69
2024/04/15 09:37:46;;;;;;;3.78;1.52;;;18.90;56.20;;;;;;5452732;26;20322;-69
2024/04/15 09:40:14;;;;;;;4.13;1.40;;;18.90;56.30;;;;;;5450606;26;20235;-70
2024/04/15 09:42:40;;;;;;;2.33;1.20;;;18.90;56.40;;;;;;5421972;26;20223;-70
2024/04/15 09:45:08;;;;;;;2.08;1.40;;;18.90;56.20;;;;;;5451341;26;20227;-70
2024/04/15 09:47:34;;;;;;;3.13;1.48;;;18.90;56.30;;;;;;5451887;26;20300;-69
2024/04/15 09:49:59;;;;;;;3.28;1.27;;;18.80;56.30;;;;;;5452640;26;20247;-69
2024/04/15 09:52:31;;;;;;;2.15;1.50;;;18.80;56.60;;;;;;5453261;26;20216;-69
2024/04/15 09:55:07;;;;;;;3.42;1.40;;;18.80;56.60;;;;;;5451814;26;20701;-69
2024/04/15 09:57:39;;;;;;;3.35;1.23;;;18.80;56.70;;;;;;5452900;26;20219;-69
2024/04/15 10:00:07;;;;;;;1.17;1.05;;;18.70;56.70;;;;;;5450903;26;20273;-69
2024/04/15 10:02:36;;;;;;;1.10;1.00;;;18.70;56.80;;;;;;5452784;26;20215;-69
2024/04/15 10:05:22;;;;;;;2.33;1.20;;;18.70;56.70;;;;;;5452494;26;20224;-69
2024/04/15 10:07:51;;;;;;;1.70;1.27;;;18.70;56.60;;;;;;5449982;26;20324;-68
2024/04/15 10:10:16;;;;;;;2.25;1.30;;;18.70;56.60;;;;;;5452713;26;20258;-70
2024/04/15 10:12:42;;;;;;;2.35;1.30;;;18.70;56.70;;;;;;5452236;26;20227;-71
2024/04/15 10:15:08;;;;;;;3.60;1.42;;;18.70;56.80;;;;;;5420358;26;20254;-70
2024/04/15 10:17:33;;;;;;;1.58;1.10;;;18.60;56.70;;;;;;5451503;26;20236;-70
2024/04/15 10:20:07;;;;;;;2.42;1.10;;;18.60;56.80;;;;;;5449595;26;20755;-69
2024/04/15 10:22:32;;;;;;;4.15;1.30;;;18.60;57.40;;;;;;5451445;26;20593;-68
2024/04/15 10:24:58;;;;;;;2.00;1.40;;;18.60;56.90;;;;;;5451761;26;20219;-67
2024/04/15 10:27:24;;;;;;;2.20;1.27;;;18.60;56.90;;;;;;5449060;26;20223;-68
2024/04/15 10:29:49;;;;;;;3.42;1.45;;;18.50;56.80;;;;;;5450693;26;20215;-69
2024/04/15 10:32:15;;;;;;;1.95;1.23;;;18.50;56.80;;;;;;5452328;26;20219;-68
2024/04/15 10:34:42;;;;;;;3.45;1.75;;;18.50;56.70;;;;;;5451832;26;20227;-70
2024/04/15 10:37:12;;;;;;;4.43;1.17;;;18.40;56.60;;;;;;5451543;26;20682;-69
2024/04/15 10:39:43;;;;;;;1.77;1.23;;;18.40;56.60;;;;;;5452146;26;20302;-70
2024/04/15 10:42:09;;;;;;;3.15;1.50;;;18.40;56.50;;;;;;5451408;26;20215;-70
2024/04/15 10:44:35;;;;;;;1.95;1.48;;;18.40;57.10;;;;;;5452155;26;20223;-70
2024/04/15 10:47:00;;;;;;;3.53;1.38;;;18.40;56.50;;;;;;5450001;26;20231;-69
2024/04/15 10:49:26;;;;;;;2.40;1.05;;;18.50;56.40;;;;;;5451237;26;20265;-70
2024/04/15 10:51:51;;;;;;;2.78;1.48;;;18.50;57.00;;;;;;5451554;26;20258;-70
2024/04/15 10:54:17;;;;;;;2.20;1.20;;;18.50;56.40;;;;;;5452006;26;20571;-70
2024/04/15 10:56:42;;;;;;;3.58;1.48;;;18.40;56.50;;;;;;5449195;26;20216;-69
2024/04/15 10:59:12;;;;;;;2.95;1.48;;;18.40;56.50;;;;;;5452012;26;20542;-70
2024/04/15 11:01:38;;;;;;;2.67;1.30;;;18.40;56.60;;;;;;5420178;26;20224;-69
2024/04/15 11:04:06;;;;;;;1.80;1.20;;;18.40;56.60;;;;;;5450341;26;20258;-68
2024/04/15 11:06:33;;;;;;;2.30;1.00;;;18.40;56.70;;;;;;5451380;26;20648;-68
2024/04/15 11:08:58;;;;;;;1.80;0.95;;;18.40;56.60;;;;;;5419977;26;20267;-68
2024/04/15 11:11:24;;;;;;;2.95;1.20;;;18.30;56.60;;;;;;5452553;26;20328;-69
2024/04/15 11:13:49;;;;;;;3.75;1.17;;;18.30;56.70;;;;;;5453035;26;20261;-69
2024/04/15 11:16:15;;;;;;;1.50;1.00;;;18.30;56.80;;;;;;5452724;26;20239;-70
2024/04/15 11:18:40;;;;;;;1.55;1.00;;;18.30;56.80;;;;;;5453963;26;20322;-70
2024/04/15 11:21:06;;;;;;;2.25;1.00;;;18.30;56.80;;;;;;5454629;26;20232;-70
2024/04/15 11:23:32;;;;;;;3.28;1.15;;;18.20;56.70;;;;;;5455141;26;20675;-69
2024/04/15 11:25:59;;;;;;;1.75;1.20;;;18.30;56.80;;;;;;5453700;26;20266;-68
2024/04/15 11:28:25;;;;;;;1.38;0.95;;;18.20;56.80;;;;;;5455660;26;20270;-71
2024/04/15 11:30:51;;;;;;;8.07;1.92;;;18.30;56.80;;;;;;5452889;26;20223;-67
2024/04/15 11:33:16;;;;;;;3.15;1.15;;;18.20;56.90;;;;;;5422109;26;20566;-71
2024/04/15 11:35:46;;;;;;;3.25;1.63;;;18.30;56.90;;;;;;5452188;26;20227;-71
2024/04/15 11:38:12;;;;;;;3.33;1.48;;;18.30;57.00;;;;;;5453529;26;20270;-71
2024/04/15 11:40:37;;;;;;;3.58;1.30;;;18.30;56.90;;;;;;5454189;26;20232;-69
2024/04/15 11:43:03;;;;;;;3.30;1.27;;;18.30;57.10;;;;;;5453874;26;20231;-71
2024/04/15 11:45:30;;;;;;;2.55;1.23;;;18.30;57.10;;;;;;5453315;26;20556;-68
2024/04/15 11:47:57;;;;;;;3.20;1.30;;;18.30;57.10;;;;;;5453971;26;20232;-68
2024/04/15 11:50:22;;;;;;;5.53;1.45;;;18.30;57.30;;;;;;5449505;26;20232;-70
2024/04/15 11:52:48;;;;;;;5.22;1.33;;;18.30;57.30;;;;;;5453254;26;20627;-68
2024/04/15 11:55:17;;;;;;;3.40;1.08;;;18.30;57.30;;;;;;5454604;26;20678;-68
2024/04/15 11:57:43;;;;;;;5.53;1.27;;;18.30;57.30;;;;;;5454316;26;20258;-69
2024/04/15 12:00:10;;;;;;;1.33;1.05;;;18.30;57.40;;;;;;5453755;26;20257;-69
2024/04/15 12:02:43;;;;;;;4.15;1.15;;;18.30;57.50;;;;;;5454436;26;20777;-68
2024/04/15 12:05:10;;;;;;;2.40;1.00;;;18.30;57.60;;;;;;5454639;26;20235;-68
2024/04/15 12:07:36;;;;;;;2.35;1.27;;;18.30;57.60;;;;;;5453723;26;20216;-68
2024/04/15 12:10:03;;;;;;;4.07;1.42;;;18.20;57.70;;;;;;5454030;26;20228;-68
2024/04/15 12:12:28;;;;;;;2.50;1.45;;;18.20;57.80;;;;;;5452511;26;20227;-69
2024/04/15 12:14:54;;;;;;;5.40;1.27;;;18.20;57.70;;;;;;5452994;26;20262;-70
2024/04/15 12:17:19;;;;;;;4.32;1.17;;;18.30;57.80;;;;;;5428027;26;20232;-70
2024/04/15 12:19:45;;;;;;;2.38;1.10;;;18.20;57.80;;;;;;5386549;26;20263;-69
2024/04/15 12:22:10;;;;;;;2.67;1.00;;;18.20;57.70;;;;;;5416703;26;20259;-66
2024/04/15 12:24:36;;;;;;;7.30;1.42;;;18.30;57.70;;;;;;5418183;26;20271;-74
2024/04/15 12:27:01;;;;;;;3.28;1.30;;;18.30;57.70;;;;;;5417789;26;20809;-67
2024/04/15 12:29:27;;;;;;;4.72;1.30;;;18.40;57.60;;;;;;5417370;26;20220;-69
2024/04/15 12:31:52;;;;;;;3.40;1.02;;;18.50;57.30;;;;;;5417716;26;20576;-70
2024/04/15 12:34:18;;;;;;;6.25;1.35;;;18.50;57.30;;;;;;5418145;26;20259;-70
2024/04/15 12:36:43;;;;;;;2.90;1.15;;;18.60;57.20;;;;;;5416898;26;20317;-71
2024/04/15 12:39:09;;;;;;;2.78;1.02;;;18.60;57.20;;;;;;5417922;26;20325;-71
2024/04/15 12:41:35;;;;;;;5.30;1.23;;;18.60;57.30;;;;;;5417127;26;20216;-71